createdAt,value
2023-07-28T00:00:22.637Z,8.67
2023-07-28T00:03:46.246Z,9.23
2023-07-28T00:07:09.844Z,7.23
2023-07-28T00:10:33.587Z,7.50
2023-07-28T00:13:57.358Z,6.70
2023-07-28T00:17:22.301Z,6.50
2023-07-28T00:20:45.965Z,7.33
2023-07-28T00:24:09.610Z,7.77
2023-07-28T00:27:33.259Z,7.20
2023-07-28T00:30:56.890Z,7.23
2023-07-28T00:34:23.012Z,8.03
2023-07-28T00:37:46.716Z,8.90
2023-07-28T00:41:10.322Z,8.80
2023-07-28T00:44:33.943Z,8.93
2023-07-28T00:47:58.885Z,9.50
2023-07-28T00:51:24.266Z,8.30
2023-07-28T00:54:47.888Z,9.87
2023-07-28T00:58:11.932Z,10.10
2023-07-28T01:01:35.542Z,10.10
2023-07-28T01:04:59.904Z,9.47
2023-07-28T01:08:34.073Z,10.10
2023-07-28T01:11:58.466Z,9.23
2023-07-28T01:15:22.357Z,10.50
2023-07-28T01:18:46.108Z,10.80
2023-07-28T01:22:29.905Z,10.60
2023-07-28T01:26:05.005Z,11.47
2023-07-28T01:29:30.569Z,13.03
2023-07-28T01:32:56.828Z,11.20
2023-07-28T01:36:20.546Z,12.53
2023-07-28T01:39:44.979Z,13.40
2023-07-28T01:43:08.668Z,13.20
2023-07-28T01:46:34.085Z,11.53
2023-07-28T01:49:57.854Z,11.87
2023-07-28T01:53:21.489Z,12.80
2023-07-28T01:56:45.122Z,12.47
2023-07-28T02:00:09.719Z,12.83
2023-07-28T02:03:40.650Z,13.57
2023-07-28T02:07:04.225Z,10.90
2023-07-28T02:10:29.174Z,10.53
2023-07-28T02:13:52.878Z,10.47
2023-07-28T02:17:16.498Z,10.60
2023-07-28T02:20:41.481Z,10.80
2023-07-28T02:24:06.357Z,10.80
2023-07-28T02:27:30.293Z,10.40
2023-07-28T02:30:53.976Z,9.77
2023-07-28T02:34:17.587Z,9.77
2023-07-28T02:37:43.801Z,10.60
2023-07-28T02:41:08.288Z,9.37
2023-07-28T02:44:31.828Z,11.37
2023-07-28T02:47:55.590Z,10.70
2023-07-28T02:51:20.808Z,11.43
2023-07-28T02:54:45.740Z,12.50
2023-07-28T02:58:09.340Z,12.33
2023-07-28T03:01:34.078Z,10.87
2023-07-28T03:04:57.998Z,10.70
2023-07-28T03:08:21.969Z,9.97
2023-07-28T03:11:47.123Z,10.17
2023-07-28T03:15:11.157Z,10.30
2023-07-28T03:18:34.744Z,11.20
2023-07-28T03:21:58.367Z,10.60
2023-07-28T03:25:22.132Z,11.17
2023-07-28T03:28:47.216Z,10.70
2023-07-28T03:32:11.015Z,10.33
2023-07-28T03:35:34.645Z,9.57
2023-07-28T03:39:04.053Z,10.20
2023-07-28T03:42:28.428Z,9.07
2023-07-28T03:45:53.368Z,10.63
2023-07-28T03:49:17.444Z,11.73
2023-07-28T03:52:41.067Z,12.77
2023-07-28T03:56:05.741Z,12.23
2023-07-28T03:59:29.299Z,11.53
2023-07-28T04:02:54.232Z,13.20
2023-07-28T04:06:17.977Z,12.80
2023-07-28T04:09:41.620Z,12.70
2023-07-28T04:13:05.239Z,12.83
2023-07-28T04:16:28.908Z,14.00
2023-07-28T04:19:53.857Z,13.50
2023-07-28T04:23:17.530Z,13.23
2023-07-28T04:26:43.800Z,15.10
2023-07-28T04:30:08.573Z,15.83
2023-07-28T04:33:32.221Z,15.30
2023-07-28T04:36:57.124Z,13.73
2023-07-28T04:40:23.501Z,15.70
2023-07-28T04:43:47.088Z,15.63
2023-07-28T04:47:10.679Z,14.00
2023-07-28T04:50:34.699Z,14.47
2023-07-28T04:54:22.998Z,13.37
2023-07-28T04:57:46.549Z,14.83
2023-07-28T05:01:10.437Z,14.23
2023-07-28T05:04:37.744Z,13.90
2023-07-28T05:08:01.512Z,15.20
2023-07-28T05:11:26.539Z,13.87
2023-07-28T05:14:50.301Z,12.90
2023-07-28T05:18:17.271Z,12.90
2023-07-28T05:22:01.881Z,14.60
2023-07-28T05:25:43.103Z,14.30
2023-07-28T05:29:08.088Z,13.03
2023-07-28T05:32:31.632Z,13.30
2023-07-28T05:36:06.839Z,15.70
2023-07-28T05:39:31.156Z,12.97
2023-07-28T05:42:54.811Z,14.77
2023-07-28T05:46:20.064Z,13.20
2023-07-28T05:49:44.143Z,15.20
2023-07-28T05:53:08.487Z,14.70
2023-07-28T05:56:32.333Z,14.27
2023-07-28T05:59:56.412Z,14.77
2023-07-28T06:03:21.493Z,15.63
2023-07-28T06:07:04.157Z,14.97
2023-07-28T06:10:27.787Z,14.27
2023-07-28T06:13:51.414Z,15.50
2023-07-28T06:17:14.983Z,16.70
2023-07-28T06:20:43.403Z,15.13
2023-07-28T06:24:07.815Z,16.53
2023-07-28T06:27:31.470Z,16.87
2023-07-28T06:30:56.287Z,15.97
2023-07-28T06:34:21.748Z,15.33
2023-07-28T06:37:46.776Z,15.67
2023-07-28T06:41:10.437Z,17.00
2023-07-28T06:44:34.188Z,17.83
2023-07-28T06:47:57.908Z,17.43
2023-07-28T06:51:21.658Z,15.60
2023-07-28T06:54:48.358Z,16.20
2023-07-28T06:58:12.224Z,14.80
2023-07-28T07:01:36.273Z,15.53
2023-07-28T07:05:00.291Z,15.23
2023-07-28T07:08:23.996Z,14.73
2023-07-28T07:11:48.937Z,14.77
2023-07-28T07:15:13.293Z,14.07
2023-07-28T07:18:36.998Z,12.30
2023-07-28T07:22:00.873Z,12.47
2023-07-28T07:25:24.458Z,11.60
2023-07-28T07:28:49.364Z,12.23
2023-07-28T07:32:13.006Z,10.50
2023-07-28T07:35:39.204Z,11.43
2023-07-28T07:39:02.835Z,12.50
2023-07-28T07:42:26.397Z,12.30
2023-07-28T07:45:53.300Z,13.17
2023-07-28T07:49:16.889Z,11.00
2023-07-28T07:52:41.776Z,10.67
2023-07-28T07:56:07.030Z,11.87
2023-07-28T07:59:35.347Z,12.40
2023-07-28T08:03:01.214Z,10.43
2023-07-28T08:06:24.888Z,9.73
2023-07-28T08:09:48.692Z,8.67
2023-07-28T08:13:12.352Z,7.03
2023-07-28T08:16:35.928Z,7.20
2023-07-28T08:20:00.883Z,7.53
2023-07-28T08:23:24.520Z,6.80
2023-07-28T08:26:48.336Z,7.27
2023-07-28T08:30:13.192Z,6.43
2023-07-28T08:33:36.846Z,7.27
2023-07-28T08:37:01.765Z,6.73
2023-07-28T08:40:28.308Z,7.80
2023-07-28T08:43:53.006Z,7.17
2023-07-28T08:47:17.076Z,6.80
2023-07-28T08:50:41.673Z,6.73
2023-07-28T08:54:06.622Z,7.53
2023-07-28T08:57:30.235Z,7.30
2023-07-28T09:00:54.670Z,7.00
2023-07-28T09:04:18.371Z,7.13
2023-07-28T09:07:44.660Z,7.97
2023-07-28T09:11:09.660Z,7.57
2023-07-28T09:14:33.315Z,8.30
2023-07-28T09:17:57.016Z,6.90
2023-07-28T09:21:22.254Z,7.33
2023-07-28T09:24:46.232Z,7.30
2023-07-28T09:28:12.242Z,7.40
2023-07-28T09:31:36.278Z,6.83
2023-07-28T09:35:14.070Z,7.33
2023-07-28T09:38:40.167Z,7.63
2023-07-28T09:42:04.817Z,7.10
2023-07-28T09:45:37.106Z,7.20
2023-07-28T09:49:06.155Z,6.40
2023-07-28T09:52:35.412Z,7.20
2023-07-28T09:56:00.878Z,6.70
2023-07-28T09:59:30.106Z,6.90
2023-07-28T10:02:55.428Z,8.13
2023-07-28T10:06:19.477Z,7.87
2023-07-28T10:09:43.523Z,7.77
2023-07-28T10:13:07.092Z,7.73
2023-07-28T10:16:40.636Z,7.50
2023-07-28T10:20:11.838Z,8.77
2023-07-28T10:23:37.362Z,7.30
2023-07-28T10:27:01.011Z,8.80
2023-07-28T10:30:24.607Z,8.40
2023-07-28T10:33:49.652Z,9.10
2023-07-28T10:37:16.912Z,8.93
2023-07-28T10:40:40.750Z,8.87
2023-07-28T10:44:05.289Z,8.90
2023-07-28T10:47:28.955Z,9.40
2023-07-28T10:50:52.630Z,8.70
2023-07-28T10:54:20.971Z,9.83
2023-07-28T10:57:45.132Z,8.63
2023-07-28T11:01:08.805Z,7.90
2023-07-28T11:04:32.443Z,8.30
2023-07-28T11:07:58.252Z,8.10
2023-07-28T11:11:23.369Z,8.87
2023-07-28T11:14:47.037Z,7.83
2023-07-28T11:18:10.988Z,7.57
2023-07-28T11:21:38.994Z,7.90
2023-07-28T11:25:02.642Z,8.33
2023-07-28T11:28:27.753Z,9.50
2023-07-28T11:31:52.484Z,8.90
2023-07-28T11:35:18.407Z,8.43
2023-07-28T11:38:42.215Z,10.00
2023-07-28T11:42:06.824Z,10.07
2023-07-28T11:45:32.033Z,9.73
2023-07-28T11:48:55.683Z,10.43
2023-07-28T11:52:20.862Z,9.40
2023-07-28T11:55:46.109Z,10.07
2023-07-28T11:59:09.746Z,10.00
2023-07-28T12:02:35.408Z,10.03
2023-07-28T12:09:34.162Z,9.40
2023-07-28T12:20:11.664Z,8.47
2023-07-28T12:27:06.957Z,7.80
2023-07-28T12:30:36.320Z,8.83
2023-07-28T12:34:02.946Z,8.60
2023-07-28T12:45:22.203Z,7.70
2023-07-28T12:48:06.470Z,7.63
2023-07-28T12:51:31.653Z,7.30
2023-07-28T12:55:15.126Z,7.93
2023-07-28T13:02:06.083Z,6.33
2023-07-28T13:05:29.651Z,6.50
2023-07-28T13:15:47.886Z,6.10
2023-07-28T13:19:11.475Z,6.80
2023-07-28T13:22:35.084Z,6.70
2023-07-28T13:25:58.657Z,6.70
2023-07-28T13:29:23.606Z,8.70
2023-07-28T13:32:47.383Z,7.07
2023-07-28T13:36:11.138Z,7.57
2023-07-28T13:39:34.819Z,7.40
2023-07-28T13:42:58.537Z,7.00
2023-07-28T13:46:23.499Z,7.00
2023-07-28T13:57:01.339Z,6.70
2023-07-28T14:00:23.839Z,7.20
2023-07-28T14:03:48.807Z,7.20
2023-07-28T14:07:12.503Z,7.00
2023-07-28T14:10:39.367Z,8.33
2023-07-28T14:14:03.054Z,6.63
2023-07-28T14:17:26.699Z,6.70
2023-07-28T14:20:51.657Z,7.17
2023-07-28T14:24:15.646Z,7.10
2023-07-28T14:27:39.297Z,6.60
2023-07-28T14:31:02.848Z,7.33
2023-07-28T14:34:26.446Z,6.80
2023-07-28T14:37:51.632Z,6.87
2023-07-28T14:41:15.314Z,6.80
2023-07-28T14:44:38.854Z,6.37
2023-07-28T14:48:03.925Z,6.27
2023-07-28T14:51:27.743Z,6.00
2023-07-28T14:54:52.640Z,6.73
2023-07-28T14:58:16.228Z,6.20
2023-07-28T15:01:39.911Z,6.37
2023-07-28T15:05:03.549Z,6.43
2023-07-28T15:08:27.904Z,6.80
2023-07-28T15:11:52.928Z,6.33
2023-07-28T15:15:16.514Z,7.10
2023-07-28T15:18:40.174Z,7.17
2023-07-28T15:22:03.988Z,6.90
2023-07-28T15:25:27.668Z,6.67
2023-07-28T15:28:52.707Z,7.20
2023-07-28T15:32:16.393Z,6.93
2023-07-28T15:35:39.979Z,8.00
2023-07-28T15:39:03.604Z,7.10
2023-07-28T15:42:28.390Z,6.50
2023-07-28T15:45:55.541Z,6.27
2023-07-28T15:49:19.708Z,6.87
2023-07-28T15:52:43.317Z,5.80
2023-07-28T15:56:07.344Z,5.30
2023-07-28T15:59:32.021Z,4.50
2023-07-28T16:02:57.026Z,4.83
2023-07-28T16:06:20.769Z,4.20
2023-07-28T16:09:45.168Z,4.13
2023-07-28T16:13:08.836Z,5.40
2023-07-28T16:16:32.731Z,4.73
2023-07-28T16:19:58.623Z,4.87
2023-07-28T16:23:22.322Z,4.80
2023-07-28T16:26:45.959Z,4.87
2023-07-28T16:30:11.195Z,5.30
2023-07-28T16:33:34.779Z,5.30
2023-07-28T16:36:59.743Z,5.10
2023-07-28T16:40:23.322Z,4.90
2023-07-28T16:43:46.936Z,5.00
2023-07-28T16:47:10.782Z,4.63
2023-07-28T16:50:34.480Z,3.97
2023-07-28T16:53:59.831Z,4.27
2023-07-28T16:57:23.457Z,4.60
2023-07-28T17:00:47.061Z,4.70
2023-07-28T17:04:10.807Z,5.73
2023-07-28T17:07:34.349Z,5.03
2023-07-28T17:10:59.277Z,4.97
2023-07-28T17:14:22.924Z,5.03
2023-07-28T17:17:46.587Z,5.03
2023-07-28T17:21:10.185Z,5.00
2023-07-28T17:24:33.986Z,5.17
2023-07-28T17:27:59.108Z,5.40
2023-07-28T17:31:23.200Z,5.20
2023-07-28T17:34:46.838Z,4.30
2023-07-28T17:38:10.437Z,4.40
2023-07-28T17:41:34.176Z,4.97
2023-07-28T17:45:02.014Z,4.50
2023-07-28T17:48:26.696Z,4.70
2023-07-28T17:51:50.978Z,4.40
2023-07-28T17:55:14.660Z,4.67
2023-07-28T17:58:38.393Z,4.17
2023-07-28T18:02:04.311Z,4.27
2023-07-28T18:05:27.943Z,4.00
2023-07-28T18:08:51.618Z,4.73
2023-07-28T18:12:15.208Z,4.20
2023-07-28T18:15:38.798Z,4.30
2023-07-28T18:19:03.719Z,4.20
2023-07-28T18:22:27.285Z,4.73
2023-07-28T18:25:50.827Z,4.70
2023-07-28T18:29:14.501Z,4.67
2023-07-28T18:32:38.085Z,4.73
2023-07-28T18:36:03.076Z,4.27
2023-07-28T18:39:26.664Z,4.67
2023-07-28T18:42:50.239Z,4.97
2023-07-28T18:46:14.046Z,4.00
2023-07-28T18:49:37.647Z,4.13
2023-07-28T18:53:02.613Z,3.97
2023-07-28T18:56:26.190Z,3.33
2023-07-28T18:59:49.809Z,3.70
2023-07-28T19:03:14.284Z,4.03
2023-07-28T19:06:38.229Z,3.13
2023-07-28T19:10:03.952Z,4.00
2023-07-28T19:13:28.636Z,3.27
2023-07-28T19:16:52.263Z,3.27
2023-07-28T19:20:20.565Z,3.00
2023-07-28T19:23:44.353Z,3.00
2023-07-28T19:27:10.218Z,2.80
2023-07-28T19:30:33.780Z,2.80
2023-07-28T19:33:57.394Z,2.67
2023-07-28T19:37:35.059Z,3.37
2023-07-28T19:41:04.546Z,3.23
2023-07-28T19:44:41.438Z,2.90
2023-07-28T19:48:06.334Z,3.20
2023-07-28T19:51:30.295Z,2.63
2023-07-28T19:54:53.855Z,3.07
2023-07-28T19:58:17.587Z,2.77
2023-07-28T20:01:42.544Z,2.70
2023-07-28T20:05:07.078Z,3.00
2023-07-28T20:08:30.620Z,2.40
2023-07-28T20:11:54.690Z,2.67
2023-07-28T20:15:18.406Z,2.70
2023-07-28T20:18:47.405Z,2.30
2023-07-28T20:22:11.823Z,2.23
2023-07-28T20:25:36.043Z,2.70
2023-07-28T20:28:59.661Z,2.47
2023-07-28T20:32:26.100Z,2.03
2023-07-28T20:35:52.816Z,1.77
2023-07-28T20:39:16.512Z,2.37
2023-07-28T20:42:40.085Z,2.00
2023-07-28T20:46:03.660Z,2.20
2023-07-28T20:49:27.304Z,2.00
2023-07-28T20:52:52.281Z,2.37
2023-07-28T20:56:15.836Z,2.07
2023-07-28T20:59:39.504Z,1.83
2023-07-28T21:03:03.794Z,2.00
2023-07-28T21:06:27.473Z,2.17
2023-07-28T21:09:53.096Z,1.90
2023-07-28T21:13:17.356Z,2.23
2023-07-28T21:16:41.256Z,1.77
2023-07-28T21:20:05.280Z,1.60
2023-07-28T21:23:31.798Z,2.27
2023-07-28T21:26:58.739Z,2.23
2023-07-28T21:30:22.462Z,2.10
2023-07-28T21:33:46.025Z,1.90
2023-07-28T21:37:09.690Z,2.30
2023-07-28T21:40:33.408Z,2.00
2023-07-28T21:43:59.245Z,1.50
2023-07-28T21:47:22.877Z,1.90
2023-07-28T21:50:46.533Z,1.73
2023-07-28T21:54:10.191Z,1.73
2023-07-28T21:57:33.897Z,2.03
2023-07-28T22:00:59.754Z,2.10
2023-07-28T22:04:23.461Z,2.23
2023-07-28T22:07:47.313Z,2.10
2023-07-28T22:11:12.233Z,1.97
2023-07-28T22:14:36.017Z,2.00
2023-07-28T22:18:01.034Z,1.63
2023-07-28T22:21:24.741Z,1.87
2023-07-28T22:24:48.627Z,2.00
2023-07-28T22:28:12.968Z,2.43
2023-07-28T22:31:36.633Z,1.97
2023-07-28T22:35:01.647Z,2.70
2023-07-28T22:38:25.364Z,2.00
2023-07-28T22:41:48.939Z,2.10
2023-07-28T22:45:12.482Z,2.10
2023-07-28T22:48:36.094Z,1.97
2023-07-28T22:52:01.007Z,2.33
2023-07-28T22:55:24.638Z,2.37
2023-07-28T22:58:48.225Z,2.17
2023-07-28T23:02:11.844Z,1.97
2023-07-28T23:05:37.660Z,2.33
2023-07-28T23:09:05.048Z,2.60
2023-07-28T23:12:28.625Z,2.20
2023-07-28T23:15:52.306Z,2.00
2023-07-28T23:19:15.888Z,2.50
2023-07-28T23:22:41.080Z,2.50
2023-07-28T23:26:06.076Z,2.17
2023-07-28T23:29:29.713Z,2.70
2023-07-28T23:32:53.287Z,2.00
2023-07-28T23:36:16.993Z,2.80
2023-07-28T23:39:40.714Z,2.20
2023-07-28T23:43:05.733Z,3.23
2023-07-28T23:46:29.354Z,2.30
2023-07-28T23:49:52.958Z,2.43
2023-07-28T23:53:16.551Z,2.57
2023-07-28T23:56:40.267Z,2.57
